sensor_id;sensor_type;location;lat;lon;timestamp;P1;durP1;ratioP1;P2;durP2;ratioP2
42964;SDS011;28604;51.204;22.552;2022-11-21T00:00:35;42.97;;;18.08;;
42964;SDS011;28604;51.204;22.552;2022-11-21T00:03:02;39.45;;;18.00;;
42964;SDS011;28604;51.204;22.552;2022-11-21T00:05:28;44.33;;;19.63;;
42964;SDS011;28604;51.204;22.552;2022-11-21T00:07:55;41.65;;;18.10;;
42964;SDS011;28604;51.204;22.552;2022-11-21T00:10:22;46.75;;;19.77;;
42964;SDS011;28604;51.204;22.552;2022-11-21T00:12:56;43.35;;;19.75;;
42964;SDS011;28604;51.204;22.552;2022-11-21T00:15:23;50.45;;;19.13;;
42964;SDS011;28604;51.204;22.552;2022-11-21T00:17:50;35.90;;;17.13;;
42964;SDS011;28604;51.204;22.552;2022-11-21T00:20:17;41.75;;;19.67;;
42964;SDS011;28604;51.204;22.552;2022-11-21T00:22:44;40.38;;;19.20;;
42964;SDS011;28604;51.204;22.552;2022-11-21T00:25:11;40.60;;;19.48;;
42964;SDS011;28604;51.204;22.552;2022-11-21T00:27:37;40.97;;;19.02;;
42964;SDS011;28604;51.204;22.552;2022-11-21T00:30:04;42.47;;;20.45;;
42964;SDS011;28604;51.204;22.552;2022-11-21T00:32:31;41.53;;;18.55;;
42964;SDS011;28604;51.204;22.552;2022-11-21T00:34:58;39.13;;;18.27;;
42964;SDS011;28604;51.204;22.552;2022-11-21T00:37:23;47.17;;;20.65;;
42964;SDS011;28604;51.204;22.552;2022-11-21T00:39:49;42.13;;;19.90;;
42964;SDS011;28604;51.204;22.552;2022-11-21T00:42:15;45.13;;;21.13;;
42964;SDS011;28604;51.204;22.552;2022-11-21T00:44:41;42.65;;;19.80;;
42964;SDS011;28604;51.204;22.552;2022-11-21T00:47:07;48.47;;;20.35;;
42964;SDS011;28604;51.204;22.552;2022-11-21T00:49:33;48.25;;;20.13;;
42964;SDS011;28604;51.204;22.552;2022-11-21T00:51:59;47.08;;;20.58;;
42964;SDS011;28604;51.204;22.552;2022-11-21T00:54:25;50.22;;;22.50;;
42964;SDS011;28604;51.204;22.552;2022-11-21T00:56:51;53.78;;;23.08;;
42964;SDS011;28604;51.204;22.552;2022-11-21T00:59:17;53.33;;;22.88;;
42964;SDS011;28604;51.204;22.552;2022-11-21T01:01:43;48.08;;;22.98;;
42964;SDS011;28604;51.204;22.552;2022-11-21T01:04:09;47.47;;;22.85;;
42964;SDS011;28604;51.204;22.552;2022-11-21T01:06:38;49.75;;;23.42;;
42964;SDS011;28604;51.204;22.552;2022-11-21T01:09:05;56.60;;;24.30;;
42964;SDS011;28604;51.204;22.552;2022-11-21T01:11:31;53.97;;;24.52;;
42964;SDS011;28604;51.204;22.552;2022-11-21T01:13:57;56.40;;;24.52;;
42964;SDS011;28604;51.204;22.552;2022-11-21T01:16:24;54.50;;;24.90;;
42964;SDS011;28604;51.204;22.552;2022-11-21T01:18:53;60.08;;;26.00;;
42964;SDS011;28604;51.204;22.552;2022-11-21T01:21:20;50.88;;;23.10;;
42964;SDS011;28604;51.204;22.552;2022-11-21T01:23:51;51.47;;;24.67;;
42964;SDS011;28604;51.204;22.552;2022-11-21T01:26:21;56.55;;;26.27;;
42964;SDS011;28604;51.204;22.552;2022-11-21T01:28:49;54.33;;;24.67;;
42964;SDS011;28604;51.204;22.552;2022-11-21T01:31:16;54.60;;;24.92;;
42964;SDS011;28604;51.204;22.552;2022-11-21T01:33:47;58.40;;;25.92;;
42964;SDS011;28604;51.204;22.552;2022-11-21T01:36:17;60.78;;;26.65;;
42964;SDS011;28604;51.204;22.552;2022-11-21T01:38:49;52.80;;;24.52;;
42964;SDS011;28604;51.204;22.552;2022-11-21T01:41:19;54.03;;;25.55;;
42964;SDS011;28604;51.204;22.552;2022-11-21T01:43:56;57.95;;;24.88;;
42964;SDS011;28604;51.204;22.552;2022-11-21T01:46:22;56.38;;;24.83;;
42964;SDS011;28604;51.204;22.552;2022-11-21T01:51:17;54.08;;;25.55;;
42964;SDS011;28604;51.204;22.552;2022-11-21T01:53:57;56.70;;;25.35;;
42964;SDS011;28604;51.204;22.552;2022-11-21T01:56:28;62.13;;;26.08;;
42964;SDS011;28604;51.204;22.552;2022-11-21T01:58:57;55.92;;;26.27;;
42964;SDS011;28604;51.204;22.552;2022-11-21T02:04:24;56.97;;;25.45;;
42964;SDS011;28604;51.204;22.552;2022-11-21T02:06:54;59.25;;;27.50;;
42964;SDS011;28604;51.204;22.552;2022-11-21T02:09:20;58.80;;;26.85;;
42964;SDS011;28604;51.204;22.552;2022-11-21T02:11:48;54.72;;;25.17;;
42964;SDS011;28604;51.204;22.552;2022-11-21T02:14:18;56.00;;;25.42;;
42964;SDS011;28604;51.204;22.552;2022-11-21T02:16:44;59.72;;;27.02;;
42964;SDS011;28604;51.204;22.552;2022-11-21T02:19:14;61.25;;;26.70;;
42964;SDS011;28604;51.204;22.552;2022-11-21T02:34:11;53.70;;;26.40;;
42964;SDS011;28604;51.204;22.552;2022-11-21T02:36:38;56.47;;;23.85;;
42964;SDS011;28604;51.204;22.552;2022-11-21T02:41:40;62.55;;;24.45;;
42964;SDS011;28604;51.204;22.552;2022-11-21T02:44:20;60.17;;;25.45;;
42964;SDS011;28604;51.204;22.552;2022-11-21T02:46:56;58.40;;;26.35;;
42964;SDS011;28604;51.204;22.552;2022-11-21T02:49:30;54.88;;;26.52;;
42964;SDS011;28604;51.204;22.552;2022-11-21T02:52:06;59.33;;;26.20;;
42964;SDS011;28604;51.204;22.552;2022-11-21T02:54:32;63.70;;;28.73;;
42964;SDS011;28604;51.204;22.552;2022-11-21T02:56:58;61.60;;;25.73;;
42964;SDS011;28604;51.204;22.552;2022-11-21T02:59:24;60.25;;;26.23;;
42964;SDS011;28604;51.204;22.552;2022-11-21T03:01:50;61.75;;;27.40;;
42964;SDS011;28604;51.204;22.552;2022-11-21T03:04:16;59.85;;;27.00;;
42964;SDS011;28604;51.204;22.552;2022-11-21T03:06:42;57.20;;;27.85;;
42964;SDS011;28604;51.204;22.552;2022-11-21T03:09:08;64.68;;;28.15;;
42964;SDS011;28604;51.204;22.552;2022-11-21T03:11:34;62.40;;;27.65;;
42964;SDS011;28604;51.204;22.552;2022-11-21T03:14:00;69.35;;;29.13;;
42964;SDS011;28604;51.204;22.552;2022-11-21T03:16:26;61.03;;;27.75;;
42964;SDS011;28604;51.204;22.552;2022-11-21T03:18:51;61.13;;;29.23;;
42964;SDS011;28604;51.204;22.552;2022-11-21T03:21:17;67.15;;;28.70;;
42964;SDS011;28604;51.204;22.552;2022-11-21T03:23:43;67.25;;;29.10;;
42964;SDS011;28604;51.204;22.552;2022-11-21T03:26:09;59.90;;;28.02;;
42964;SDS011;28604;51.204;22.552;2022-11-21T03:28:35;62.30;;;29.95;;
42964;SDS011;28604;51.204;22.552;2022-11-21T03:31:01;62.05;;;28.38;;
42964;SDS011;28604;51.204;22.552;2022-11-21T03:33:27;64.82;;;29.02;;
42964;SDS011;28604;51.204;22.552;2022-11-21T03:35:53;62.10;;;26.90;;
42964;SDS011;28604;51.204;22.552;2022-11-21T03:38:19;63.17;;;27.85;;
42964;SDS011;28604;51.204;22.552;2022-11-21T03:40:45;60.17;;;27.92;;
42964;SDS011;28604;51.204;22.552;2022-11-21T03:43:10;56.60;;;26.60;;
42964;SDS011;28604;51.204;22.552;2022-11-21T03:45:36;60.30;;;27.08;;
42964;SDS011;28604;51.204;22.552;2022-11-21T03:48:02;59.42;;;27.50;;
42964;SDS011;28604;51.204;22.552;2022-11-21T03:53:27;61.97;;;27.23;;
42964;SDS011;28604;51.204;22.552;2022-11-21T03:55:53;63.28;;;27.77;;
42964;SDS011;28604;51.204;22.552;2022-11-21T03:58:18;61.17;;;27.45;;
42964;SDS011;28604;51.204;22.552;2022-11-21T04:00:46;58.03;;;27.02;;
42964;SDS011;28604;51.204;22.552;2022-11-21T04:03:11;62.50;;;27.05;;
42964;SDS011;28604;51.204;22.552;2022-11-21T04:05:38;62.42;;;27.27;;
42964;SDS011;28604;51.204;22.552;2022-11-21T04:08:03;61.47;;;25.75;;
42964;SDS011;28604;51.204;22.552;2022-11-21T04:10:30;61.50;;;28.05;;
42964;SDS011;28604;51.204;22.552;2022-11-21T04:12:55;57.65;;;26.25;;
42964;SDS011;28604;51.204;22.552;2022-11-21T04:15:21;63.80;;;27.10;;
42964;SDS011;28604;51.204;22.552;2022-11-21T04:17:47;58.05;;;25.50;;
42964;SDS011;28604;51.204;22.552;2022-11-21T04:20:13;55.75;;;26.60;;
42964;SDS011;28604;51.204;22.552;2022-11-21T04:22:40;60.35;;;26.58;;
42964;SDS011;28604;51.204;22.552;2022-11-21T04:25:07;60.63;;;26.25;;
42964;SDS011;28604;51.204;22.552;2022-11-21T04:27:33;53.55;;;27.15;;
42964;SDS011;28604;51.204;22.552;2022-11-21T04:29:59;63.58;;;27.33;;
42964;SDS011;28604;51.204;22.552;2022-11-21T04:32:24;63.50;;;27.90;;
42964;SDS011;28604;51.204;22.552;2022-11-21T04:34:50;61.17;;;26.75;;
42964;SDS011;28604;51.204;22.552;2022-11-21T04:37:16;55.75;;;25.35;;
42964;SDS011;28604;51.204;22.552;2022-11-21T04:39:42;65.78;;;28.05;;
42964;SDS011;28604;51.204;22.552;2022-11-21T04:42:08;65.22;;;25.73;;
42964;SDS011;28604;51.204;22.552;2022-11-21T04:44:34;62.88;;;26.42;;
42964;SDS011;28604;51.204;22.552;2022-11-21T04:47:00;55.10;;;25.05;;
42964;SDS011;28604;51.204;22.552;2022-11-21T04:49:26;59.03;;;26.05;;
42964;SDS011;28604;51.204;22.552;2022-11-21T04:51:52;57.42;;;26.10;;
42964;SDS011;28604;51.204;22.552;2022-11-21T04:54:18;69.03;;;26.70;;
42964;SDS011;28604;51.204;22.552;2022-11-21T04:56:44;61.53;;;26.17;;
42964;SDS011;28604;51.204;22.552;2022-11-21T04:59:10;69.07;;;28.33;;
42964;SDS011;28604;51.204;22.552;2022-11-21T05:01:37;63.65;;;26.75;;
42964;SDS011;28604;51.204;22.552;2022-11-21T05:04:03;68.38;;;26.85;;
42964;SDS011;28604;51.204;22.552;2022-11-21T05:06:29;56.58;;;25.08;;
42964;SDS011;28604;51.204;22.552;2022-11-21T05:14:33;57.92;;;26.88;;
42964;SDS011;28604;51.204;22.552;2022-11-21T05:16:59;65.28;;;26.00;;
42964;SDS011;28604;51.204;22.552;2022-11-21T05:19:24;60.72;;;24.58;;
42964;SDS011;28604;51.204;22.552;2022-11-21T05:21:50;58.30;;;24.52;;
42964;SDS011;28604;51.204;22.552;2022-11-21T05:24:16;58.78;;;24.02;;
42964;SDS011;28604;51.204;22.552;2022-11-21T05:26:42;62.38;;;26.65;;
42964;SDS011;28604;51.204;22.552;2022-11-21T05:29:08;58.67;;;25.25;;
42964;SDS011;28604;51.204;22.552;2022-11-21T05:31:34;63.50;;;26.15;;
42964;SDS011;28604;51.204;22.552;2022-11-21T05:34:00;64.28;;;26.55;;
42964;SDS011;28604;51.204;22.552;2022-11-21T05:36:26;62.03;;;24.27;;
42964;SDS011;28604;51.204;22.552;2022-11-21T05:38:52;63.53;;;26.35;;
42964;SDS011;28604;51.204;22.552;2022-11-21T05:41:18;62.95;;;25.55;;
42964;SDS011;28604;51.204;22.552;2022-11-21T05:43:43;65.25;;;25.90;;
42964;SDS011;28604;51.204;22.552;2022-11-21T05:46:14;65.38;;;27.05;;
42964;SDS011;28604;51.204;22.552;2022-11-21T05:48:41;68.85;;;26.45;;
42964;SDS011;28604;51.204;22.552;2022-11-21T05:51:08;62.53;;;25.08;;
42964;SDS011;28604;51.204;22.552;2022-11-21T05:53:34;54.92;;;24.63;;
42964;SDS011;28604;51.204;22.552;2022-11-21T05:56:18;55.40;;;24.77;;
42964;SDS011;28604;51.204;22.552;2022-11-21T05:58:44;58.58;;;24.95;;
42964;SDS011;28604;51.204;22.552;2022-11-21T06:01:11;58.53;;;25.25;;
42964;SDS011;28604;51.204;22.552;2022-11-21T06:04:01;57.72;;;24.77;;
42964;SDS011;28604;51.204;22.552;2022-11-21T06:06:27;58.65;;;23.27;;
42964;SDS011;28604;51.204;22.552;2022-11-21T06:08:53;53.72;;;23.02;;
42964;SDS011;28604;51.204;22.552;2022-11-21T06:11:19;54.38;;;24.20;;
42964;SDS011;28604;51.204;22.552;2022-11-21T06:13:45;57.45;;;24.15;;
42964;SDS011;28604;51.204;22.552;2022-11-21T06:16:12;53.40;;;22.98;;
42964;SDS011;28604;51.204;22.552;2022-11-21T06:18:43;51.33;;;22.90;;
42964;SDS011;28604;51.204;22.552;2022-11-21T06:21:13;51.55;;;23.85;;
42964;SDS011;28604;51.204;22.552;2022-11-21T06:23:40;50.05;;;23.08;;
42964;SDS011;28604;51.204;22.552;2022-11-21T06:26:07;54.20;;;22.10;;
42964;SDS011;28604;51.204;22.552;2022-11-21T06:28:36;57.65;;;23.77;;
42964;SDS011;28604;51.204;22.552;2022-11-21T06:33:29;50.85;;;23.05;;
42964;SDS011;28604;51.204;22.552;2022-11-21T06:35:56;50.13;;;22.42;;
42964;SDS011;28604;51.204;22.552;2022-11-21T06:38:22;51.90;;;22.50;;
42964;SDS011;28604;51.204;22.552;2022-11-21T06:40:48;53.63;;;23.13;;
42964;SDS011;28604;51.204;22.552;2022-11-21T06:43:13;57.53;;;23.35;;
42964;SDS011;28604;51.204;22.552;2022-11-21T06:45:40;51.75;;;21.17;;
42964;SDS011;28604;51.204;22.552;2022-11-21T06:48:05;49.65;;;22.00;;
42964;SDS011;28604;51.204;22.552;2022-11-21T06:50:32;48.22;;;21.63;;
42964;SDS011;28604;51.204;22.552;2022-11-21T06:52:57;55.45;;;23.08;;
42964;SDS011;28604;51.204;22.552;2022-11-21T06:55:24;52.92;;;21.13;;
42964;SDS011;28604;51.204;22.552;2022-11-21T06:57:52;52.55;;;23.00;;
42964;SDS011;28604;51.204;22.552;2022-11-21T07:00:18;51.45;;;22.73;;
42964;SDS011;28604;51.204;22.552;2022-11-21T07:02:45;61.10;;;24.63;;
42964;SDS011;28604;51.204;22.552;2022-11-21T07:05:11;54.03;;;23.50;;
42964;SDS011;28604;51.204;22.552;2022-11-21T07:07:37;53.63;;;21.80;;
42964;SDS011;28604;51.204;22.552;2022-11-21T07:10:03;53.95;;;22.65;;
42964;SDS011;28604;51.204;22.552;2022-11-21T07:12:29;55.22;;;23.10;;
42964;SDS011;28604;51.204;22.552;2022-11-21T07:15:14;53.65;;;22.13;;
42964;SDS011;28604;51.204;22.552;2022-11-21T07:17:39;56.65;;;22.83;;
42964;SDS011;28604;51.204;22.552;2022-11-21T07:20:06;54.13;;;23.13;;
42964;SDS011;28604;51.204;22.552;2022-11-21T07:22:32;48.78;;;22.08;;
42964;SDS011;28604;51.204;22.552;2022-11-21T07:24:58;60.35;;;23.45;;
42964;SDS011;28604;51.204;22.552;2022-11-21T07:27:23;53.17;;;24.52;;
42964;SDS011;28604;51.204;22.552;2022-11-21T07:29:49;49.95;;;23.23;;
42964;SDS011;28604;51.204;22.552;2022-11-21T07:32:16;59.70;;;25.40;;
42964;SDS011;28604;51.204;22.552;2022-11-21T07:34:42;52.30;;;23.48;;
42964;SDS011;28604;51.204;22.552;2022-11-21T07:37:07;55.17;;;23.45;;
42964;SDS011;28604;51.204;22.552;2022-11-21T07:39:33;60.97;;;25.38;;
42964;SDS011;28604;51.204;22.552;2022-11-21T07:41:59;54.67;;;24.05;;
42964;SDS011;28604;51.204;22.552;2022-11-21T07:44:25;56.53;;;23.70;;
42964;SDS011;28604;51.204;22.552;2022-11-21T07:46:54;61.33;;;25.00;;
42964;SDS011;28604;51.204;22.552;2022-11-21T07:49:20;57.58;;;25.80;;
42964;SDS011;28604;51.204;22.552;2022-11-21T07:51:46;56.97;;;24.58;;
42964;SDS011;28604;51.204;22.552;2022-11-21T07:54:12;57.28;;;24.52;;
42964;SDS011;28604;51.204;22.552;2022-11-21T07:56:38;58.10;;;25.08;;
42964;SDS011;28604;51.204;22.552;2022-11-21T07:59:04;57.95;;;26.30;;
42964;SDS011;28604;51.204;22.552;2022-11-21T08:01:30;60.33;;;26.48;;
42964;SDS011;28604;51.204;22.552;2022-11-21T08:03:56;62.92;;;26.48;;
42964;SDS011;28604;51.204;22.552;2022-11-21T08:06:22;66.35;;;27.50;;
42964;SDS011;28604;51.204;22.552;2022-11-21T08:08:52;59.75;;;25.65;;
42964;SDS011;28604;51.204;22.552;2022-11-21T08:11:18;59.60;;;24.70;;
42964;SDS011;28604;51.204;22.552;2022-11-21T08:13:44;58.65;;;25.80;;
42964;SDS011;28604;51.204;22.552;2022-11-21T08:16:10;57.03;;;25.85;;
42964;SDS011;28604;51.204;22.552;2022-11-21T08:18:36;52.13;;;25.05;;
42964;SDS011;28604;51.204;22.552;2022-11-21T08:21:02;52.15;;;24.85;;
42964;SDS011;28604;51.204;22.552;2022-11-21T08:23:30;56.78;;;26.15;;
42964;SDS011;28604;51.204;22.552;2022-11-21T08:25:56;62.20;;;27.60;;
42964;SDS011;28604;51.204;22.552;2022-11-21T08:28:22;57.92;;;26.00;;
42964;SDS011;28604;51.204;22.552;2022-11-21T08:30:48;55.25;;;26.17;;
42964;SDS011;28604;51.204;22.552;2022-11-21T08:33:14;53.83;;;24.17;;
42964;SDS011;28604;51.204;22.552;2022-11-21T08:35:40;53.00;;;25.67;;
42964;SDS011;28604;51.204;22.552;2022-11-21T08:38:06;53.88;;;25.55;;
42964;SDS011;28604;51.204;22.552;2022-11-21T08:40:33;55.20;;;24.35;;
42964;SDS011;28604;51.204;22.552;2022-11-21T08:43:01;60.28;;;26.35;;
42964;SDS011;28604;51.204;22.552;2022-11-21T08:45:28;58.15;;;26.65;;
42964;SDS011;28604;51.204;22.552;2022-11-21T08:47:55;57.67;;;25.60;;
42964;SDS011;28604;51.204;22.552;2022-11-21T08:50:21;58.33;;;25.80;;
42964;SDS011;28604;51.204;22.552;2022-11-21T08:52:48;50.42;;;24.98;;
42964;SDS011;28604;51.204;22.552;2022-11-21T08:55:14;51.63;;;24.83;;
42964;SDS011;28604;51.204;22.552;2022-11-21T08:57:40;52.08;;;24.40;;
42964;SDS011;28604;51.204;22.552;2022-11-21T09:00:07;56.28;;;25.90;;
42964;SDS011;28604;51.204;22.552;2022-11-21T09:02:37;53.75;;;24.67;;
42964;SDS011;28604;51.204;22.552;2022-11-21T09:05:03;54.38;;;26.27;;
42964;SDS011;28604;51.204;22.552;2022-11-21T09:07:29;47.72;;;23.90;;
42964;SDS011;28604;51.204;22.552;2022-11-21T09:09:55;56.20;;;26.77;;
42964;SDS011;28604;51.204;22.552;2022-11-21T09:12:21;60.78;;;29.60;;
42964;SDS011;28604;51.204;22.552;2022-11-21T09:14:47;62.67;;;28.67;;
42964;SDS011;28604;51.204;22.552;2022-11-21T09:17:32;60.78;;;27.42;;
42964;SDS011;28604;51.204;22.552;2022-11-21T09:20:16;60.20;;;29.58;;
42964;SDS011;28604;51.204;22.552;2022-11-21T09:22:42;55.42;;;24.83;;
42964;SDS011;28604;51.204;22.552;2022-11-21T09:25:08;52.35;;;25.92;;
42964;SDS011;28604;51.204;22.552;2022-11-21T09:27:34;53.17;;;25.27;;
42964;SDS011;28604;51.204;22.552;2022-11-21T09:30:00;49.75;;;26.95;;
42964;SDS011;28604;51.204;22.552;2022-11-21T09:32:26;51.80;;;25.90;;
42964;SDS011;28604;51.204;22.552;2022-11-21T09:34:52;47.75;;;25.48;;
42964;SDS011;28604;51.204;22.552;2022-11-21T09:37:18;52.95;;;28.73;;
42964;SDS011;28604;51.204;22.552;2022-11-21T09:39:44;56.55;;;28.17;;
42964;SDS011;28604;51.204;22.552;2022-11-21T09:42:30;51.13;;;27.73;;
42964;SDS011;28604;51.204;22.552;2022-11-21T09:48:08;51.50;;;25.60;;
42964;SDS011;28604;51.204;22.552;2022-11-21T09:50:41;50.38;;;25.75;;
42964;SDS011;28604;51.204;22.552;2022-11-21T09:53:12;52.13;;;26.50;;
42964;SDS011;28604;51.204;22.552;2022-11-21T09:55:58;52.13;;;26.90;;
42964;SDS011;28604;51.204;22.552;2022-11-21T09:58:38;49.42;;;25.05;;
42964;SDS011;28604;51.204;22.552;2022-11-21T10:03:45;50.80;;;25.15;;
42964;SDS011;28604;51.204;22.552;2022-11-21T10:06:16;43.20;;;22.77;;
42964;SDS011;28604;51.204;22.552;2022-11-21T10:11:50;44.00;;;22.67;;
42964;SDS011;28604;51.204;22.552;2022-11-21T10:26:35;39.08;;;21.70;;
42964;SDS011;28604;51.204;22.552;2022-11-21T10:29:15;38.10;;;21.23;;
42964;SDS011;28604;51.204;22.552;2022-11-21T10:31:55;37.38;;;21.08;;
42964;SDS011;28604;51.204;22.552;2022-11-21T10:34:28;34.15;;;20.92;;
42964;SDS011;28604;51.204;22.552;2022-11-21T10:37:02;39.08;;;21.52;;
42964;SDS011;28604;51.204;22.552;2022-11-21T10:39:41;38.53;;;20.45;;
42964;SDS011;28604;51.204;22.552;2022-11-21T10:42:31;38.35;;;21.25;;
42964;SDS011;28604;51.204;22.552;2022-11-21T10:45:02;39.70;;;21.10;;
42964;SDS011;28604;51.204;22.552;2022-11-21T10:47:41;39.92;;;21.83;;
42964;SDS011;28604;51.204;22.552;2022-11-21T10:52:50;33.03;;;19.60;;
42964;SDS011;28604;51.204;22.552;2022-11-21T10:58:45;30.95;;;17.85;;
42964;SDS011;28604;51.204;22.552;2022-11-21T11:04:35;25.90;;;15.82;;
42964;SDS011;28604;51.204;22.552;2022-11-21T11:06:44;28.77;;;16.17;;
42964;SDS011;28604;51.204;22.552;2022-11-21T11:12:22;22.45;;;14.27;;
42964;SDS011;28604;51.204;22.552;2022-11-21T11:15:32;26.25;;;16.02;;
42964;SDS011;28604;51.204;22.552;2022-11-21T11:17:58;26.20;;;15.90;;
42964;SDS011;28604;51.204;22.552;2022-11-21T11:25:52;28.98;;;16.90;;
42964;SDS011;28604;51.204;22.552;2022-11-21T11:28:23;29.83;;;18.00;;
42964;SDS011;28604;51.204;22.552;2022-11-21T11:30:51;28.85;;;18.10;;
42964;SDS011;28604;51.204;22.552;2022-11-21T11:38:34;32.45;;;20.33;;
42964;SDS011;28604;51.204;22.552;2022-11-21T11:41:02;33.20;;;21.13;;
42964;SDS011;28604;51.204;22.552;2022-11-21T11:43:41;36.33;;;21.58;;
42964;SDS011;28604;51.204;22.552;2022-11-21T11:49:43;34.85;;;20.20;;
42964;SDS011;28604;51.204;22.552;2022-11-21T11:52:34;40.08;;;21.27;;
42964;SDS011;28604;51.204;22.552;2022-11-21T11:55:28;34.45;;;20.85;;
42964;SDS011;28604;51.204;22.552;2022-11-21T11:58:05;33.28;;;20.00;;
42964;SDS011;28604;51.204;22.552;2022-11-21T12:00:39;34.30;;;19.42;;
42964;SDS011;28604;51.204;22.552;2022-11-21T12:06:08;30.10;;;18.77;;
42964;SDS011;28604;51.204;22.552;2022-11-21T12:08:53;37.10;;;20.35;;
42964;SDS011;28604;51.204;22.552;2022-11-21T12:11:32;30.60;;;18.27;;
42964;SDS011;28604;51.204;22.552;2022-11-21T12:20:17;32.05;;;18.05;;
42964;SDS011;28604;51.204;22.552;2022-11-21T12:22:50;33.95;;;18.15;;
42964;SDS011;28604;51.204;22.552;2022-11-21T12:25:18;32.22;;;19.25;;
42964;SDS011;28604;51.204;22.552;2022-11-21T12:27:49;34.40;;;20.58;;
42964;SDS011;28604;51.204;22.552;2022-11-21T12:30:32;35.45;;;20.70;;
42964;SDS011;28604;51.204;22.552;2022-11-21T12:33:20;43.65;;;22.45;;
42964;SDS011;28604;51.204;22.552;2022-11-21T12:38:36;38.53;;;22.77;;
42964;SDS011;28604;51.204;22.552;2022-11-21T12:44:40;33.30;;;21.25;;
42964;SDS011;28604;51.204;22.552;2022-11-21T12:50:02;38.38;;;21.45;;
42964;SDS011;28604;51.204;22.552;2022-11-21T12:53:05;38.40;;;22.10;;
42964;SDS011;28604;51.204;22.552;2022-11-21T12:58:38;32.23;;;21.43;;
42964;SDS011;28604;51.204;22.552;2022-11-21T13:06:31;34.75;;;21.92;;
42964;SDS011;28604;51.204;22.552;2022-11-21T13:09:01;37.13;;;21.45;;
42964;SDS011;28604;51.204;22.552;2022-11-21T13:17:25;38.33;;;21.17;;
42964;SDS011;28604;51.204;22.552;2022-11-21T13:20:04;31.63;;;19.48;;
42964;SDS011;28604;51.204;22.552;2022-11-21T13:22:49;35.50;;;21.02;;
42964;SDS011;28604;51.204;22.552;2022-11-21T13:30:49;35.38;;;20.38;;
42964;SDS011;28604;51.204;22.552;2022-11-21T13:36:01;40.75;;;21.13;;
42964;SDS011;28604;51.204;22.552;2022-11-21T13:39:23;38.88;;;20.90;;
42964;SDS011;28604;51.204;22.552;2022-11-21T13:51:58;35.88;;;19.60;;
42964;SDS011;28604;51.204;22.552;2022-11-21T13:57:25;35.28;;;20.15;;
42964;SDS011;28604;51.204;22.552;2022-11-21T14:00:23;32.88;;;18.02;;
42964;SDS011;28604;51.204;22.552;2022-11-21T14:06:21;34.10;;;17.70;;
42964;SDS011;28604;51.204;22.552;2022-11-21T14:09:04;35.03;;;17.45;;
42964;SDS011;28604;51.204;22.552;2022-11-21T14:19:53;31.75;;;17.23;;
42964;SDS011;28604;51.204;22.552;2022-11-21T14:22:30;29.60;;;16.33;;
42964;SDS011;28604;51.204;22.552;2022-11-21T14:25:08;31.08;;;17.33;;
42964;SDS011;28604;51.204;22.552;2022-11-21T14:27:39;29.95;;;17.40;;
42964;SDS011;28604;51.204;22.552;2022-11-21T14:43:59;32.97;;;17.77;;
42964;SDS011;28604;51.204;22.552;2022-11-21T14:46:27;31.63;;;18.27;;
42964;SDS011;28604;51.204;22.552;2022-11-21T14:52:07;39.53;;;18.55;;
42964;SDS011;28604;51.204;22.552;2022-11-21T14:57:16;38.60;;;19.80;;
42964;SDS011;28604;51.204;22.552;2022-11-21T14:59:48;34.10;;;18.13;;
42964;SDS011;28604;51.204;22.552;2022-11-21T15:02:49;39.60;;;18.58;;
42964;SDS011;28604;51.204;22.552;2022-11-21T15:05:11;38.15;;;20.23;;
42964;SDS011;28604;51.204;22.552;2022-11-21T15:07:43;37.65;;;20.30;;
42964;SDS011;28604;51.204;22.552;2022-11-21T15:12:49;33.67;;;18.70;;
42964;SDS011;28604;51.204;22.552;2022-11-21T15:18:01;38.92;;;19.13;;
42964;SDS011;28604;51.204;22.552;2022-11-21T15:20:29;40.50;;;19.75;;
42964;SDS011;28604;51.204;22.552;2022-11-21T15:22:59;37.50;;;18.33;;
42964;SDS011;28604;51.204;22.552;2022-11-21T15:25:27;115.75;;;27.73;;
42964;SDS011;28604;51.204;22.552;2022-11-21T15:30:30;37.58;;;18.65;;
42964;SDS011;28604;51.204;22.552;2022-11-21T15:35:51;37.85;;;20.05;;
42964;SDS011;28604;51.204;22.552;2022-11-21T15:38:54;37.15;;;19.50;;
42964;SDS011;28604;51.204;22.552;2022-11-21T15:43:47;46.85;;;23.38;;
42964;SDS011;28604;51.204;22.552;2022-11-21T15:46:16;71.20;;;28.00;;
42964;SDS011;28604;51.204;22.552;2022-11-21T15:51:19;49.35;;;24.10;;
42964;SDS011;28604;51.204;22.552;2022-11-21T15:53:47;47.92;;;24.20;;
42964;SDS011;28604;51.204;22.552;2022-11-21T15:56:13;42.45;;;22.20;;
42964;SDS011;28604;51.204;22.552;2022-11-21T15:58:42;50.28;;;25.35;;
42964;SDS011;28604;51.204;22.552;2022-11-21T16:01:27;62.17;;;28.15;;
42964;SDS011;28604;51.204;22.552;2022-11-21T16:03:55;53.80;;;26.42;;
42964;SDS011;28604;51.204;22.552;2022-11-21T16:06:22;54.72;;;27.75;;
42964;SDS011;28604;51.204;22.552;2022-11-21T16:08:48;59.60;;;28.25;;
42964;SDS011;28604;51.204;22.552;2022-11-21T16:11:15;63.00;;;28.33;;
42964;SDS011;28604;51.204;22.552;2022-11-21T16:13:48;57.47;;;27.63;;
42964;SDS011;28604;51.204;22.552;2022-11-21T16:16:18;51.38;;;24.40;;
42964;SDS011;28604;51.204;22.552;2022-11-21T16:18:46;61.95;;;26.17;;
42964;SDS011;28604;51.204;22.552;2022-11-21T16:21:12;68.13;;;29.10;;
42964;SDS011;28604;51.204;22.552;2022-11-21T16:23:39;58.88;;;25.48;;
42964;SDS011;28604;51.204;22.552;2022-11-21T16:26:05;63.83;;;26.00;;
42964;SDS011;28604;51.204;22.552;2022-11-21T16:28:32;70.78;;;27.52;;
42964;SDS011;28604;51.204;22.552;2022-11-21T16:30:59;70.90;;;26.80;;
42964;SDS011;28604;51.204;22.552;2022-11-21T16:33:26;72.82;;;27.90;;
42964;SDS011;28604;51.204;22.552;2022-11-21T16:35:53;71.88;;;28.45;;
42964;SDS011;28604;51.204;22.552;2022-11-21T16:38:21;58.38;;;25.15;;
42964;SDS011;28604;51.204;22.552;2022-11-21T16:40:52;52.42;;;25.30;;
42964;SDS011;28604;51.204;22.552;2022-11-21T16:43:23;53.08;;;25.23;;
42964;SDS011;28604;51.204;22.552;2022-11-21T16:45:49;52.75;;;24.08;;
42964;SDS011;28604;51.204;22.552;2022-11-21T16:48:17;52.25;;;24.00;;
42964;SDS011;28604;51.204;22.552;2022-11-21T16:50:44;80.13;;;23.00;;
42964;SDS011;28604;51.204;22.552;2022-11-21T16:53:11;42.97;;;21.15;;
42964;SDS011;28604;51.204;22.552;2022-11-21T16:55:37;42.75;;;20.92;;
42964;SDS011;28604;51.204;22.552;2022-11-21T16:58:03;45.00;;;21.67;;
42964;SDS011;28604;51.204;22.552;2022-11-21T17:00:29;40.38;;;20.10;;
42964;SDS011;28604;51.204;22.552;2022-11-21T17:02:55;38.65;;;19.02;;
42964;SDS011;28604;51.204;22.552;2022-11-21T17:05:22;43.13;;;19.17;;
42964;SDS011;28604;51.204;22.552;2022-11-21T17:07:48;38.95;;;18.80;;
42964;SDS011;28604;51.204;22.552;2022-11-21T17:10:14;41.28;;;20.58;;
42964;SDS011;28604;51.204;22.552;2022-11-21T17:12:41;42.88;;;20.63;;
42964;SDS011;28604;51.204;22.552;2022-11-21T17:15:09;41.85;;;22.75;;
42964;SDS011;28604;51.204;22.552;2022-11-21T17:17:37;44.08;;;22.88;;
42964;SDS011;28604;51.204;22.552;2022-11-21T17:20:04;51.53;;;23.48;;